Hartshorne, Oklahoma
Current Conditions -  °F | °C
As of 11:53 AM on Monday 22 Dec 2014 (Local Time) from KMLC Reporting Station
Overcast Overcast  
Wind Chill: 56°   Ceiling: 2500
Heat Index: 56°   Visibility: 10mi
Dew Point: 47°   Wind: 10mph
Humidity: 72%   Direction: 250°WSW
Pressure: 29.57"   Gusts: NA
Location:  34.85°N, 95.56°W
Report Text: KMLC 221753Z AUTO 25009KT 10SM OVC025 13/08 A2957 RMK AO2 SLP010 T01330083 10133 20111 58010
Loading
Personal Weather Stations






























Interactive Weather Map New forecast layout! Learn more

10-Day Weather Forecast

Advertisements
Track Severe Weather on mobile